KDAB

Daytona Beach International Airport

Daytona Beach, Florida, USA
METAR KDAB 231953Z 32006KT 7SM RA SCT055 OVC070 22/21 A3007 RMK AO2 RAB1857E15B34 SLP181 P0001 T02170211
Observed Flight Rules
Oct-23 @ 19:53 UTC (39 minutes ago) Visual Flight Rules
Wind Visibility Clouds Conditions
320° at 6 knots 7 miles
  • Scattered at 5,500' AGL
  • Overcast at 7,000' AGL
  • Rain
Temperatures Readings Precipitation
Current 22°C / 72°F
Dewpoint 21°C / 70°F
Humidity 94%
Altimeter 30.07" Hg
Pressure 1018.1 hPa
Elevation 9
Current Rain 0.01
METAR KDAB 231953Z 32006KT 7SM RA SCT055 OVC070 22/21 A3007 RMK AO2 RAB1857E15B34 SLP181 P0001 T02170211
Observed Flight Rules
Oct-23 @ 19:53 UTC
(39 minutes ago)
VFR
Wind Visibility
320° at 6 knots 7 miles
Clouds
  • Scattered at 5,500' AGL
  • Overcast at 7,000' AGL
Conditions
  • Rain
Temperature Dewpoint
22°C / 72°F 21°C / 70°F
Humidity Altimeter Pressure
94% 30.07" Hg 1018.1 hPa
Current Rain
0.01